Time;durP1;ratioP1;P1;durP2;ratioP2;P2;SDS_P1;SDS_P2;PMS_P1;PMS_P2;Temp;Humidity;BMP_temperature;BMP_pressure;BME280_temperature;BME280_humidity;BME280_pressure;Samples;Min_cycle;Max_cycle;Signal;HPM_P1;HPM_P2
2022/08/21 00:02:24;;;;;;;6.80;4.10;;;15.20;99.90;;;;;;5056161;28;20195;-39
2022/08/21 00:04:51;;;;;;;7.70;4.20;;;15.20;99.90;;;;;;5056787;28;20478;-38
2022/08/21 00:07:18;;;;;;;5.53;4.33;;;15.20;99.90;;;;;;5038005;28;20187;-39
2022/08/21 00:09:43;;;;;;;5.80;4.20;;;15.10;99.90;;;;;;5055873;28;20207;-38
2022/08/21 00:12:10;;;;;;;6.53;4.60;;;15.10;99.90;;;;;;5055530;28;20672;-40
2022/08/21 00:14:36;;;;;;;8.23;4.50;;;15.10;99.90;;;;;;5056036;28;20288;-38
2022/08/21 00:17:03;;;;;;;6.40;4.27;;;15.00;99.90;;;;;;5055677;28;20173;-38
2022/08/21 00:19:29;;;;;;;7.73;4.50;;;15.00;99.90;;;;;;5055629;28;20202;-40
2022/08/21 00:21:55;;;;;;;5.67;4.00;;;15.00;99.90;;;;;;5056250;28;20204;-39
2022/08/21 00:24:22;;;;;;;6.27;4.00;;;14.90;99.90;;;;;;5055700;28;20176;-40
2022/08/21 00:26:48;;;;;;;6.07;4.20;;;14.90;99.90;;;;;;5055511;28;20178;-40
2022/08/21 00:29:14;;;;;;;8.13;5.23;;;14.80;99.90;;;;;;5055713;28;20204;-40
2022/08/21 00:31:41;;;;;;;6.90;4.97;;;14.80;99.90;;;;;;5055213;28;20279;-38
2022/08/21 00:34:07;;;;;;;8.47;5.40;;;14.80;99.90;;;;;;5055669;28;20180;-39
2022/08/21 00:36:34;;;;;;;7.20;4.77;;;14.80;99.90;;;;;;5055933;28;20169;-39
2022/08/21 00:39:00;;;;;;;7.50;4.93;;;14.70;99.90;;;;;;5055123;28;20319;-38
2022/08/21 00:41:26;;;;;;;5.63;4.97;;;14.70;99.90;;;;;;5054958;28;20299;-40
2022/08/21 00:43:53;;;;;;;6.90;5.30;;;14.70;99.90;;;;;;5036998;28;20184;-38
2022/08/21 00:46:19;;;;;;;8.60;4.80;;;14.60;99.90;;;;;;5036958;28;20187;-40
2022/08/21 00:48:44;;;;;;;5.20;4.40;;;14.60;99.90;;;;;;5054914;28;20203;-38
2022/08/21 00:51:22;;;;;;;6.23;4.63;;;14.60;99.90;;;;;;5054686;28;20231;-40
2022/08/21 00:53:50;;;;;;;7.53;4.57;;;14.50;99.90;;;;;;5054540;28;20156;-38
2022/08/21 00:56:15;;;;;;;7.73;4.87;;;14.50;99.90;;;;;;5054471;28;20179;-39
2022/08/21 00:58:42;;;;;;;8.10;4.73;;;14.50;99.90;;;;;;5054182;28;20271;-38
2022/08/21 01:01:09;;;;;;;7.50;4.83;;;14.50;99.90;;;;;;5054580;28;20204;-38
2022/08/21 01:03:36;;;;;;;8.33;4.57;;;14.50;99.90;;;;;;5055081;28;20553;-38
2022/08/21 01:06:03;;;;;;;9.10;4.57;;;14.40;99.90;;;;;;5054700;28;20186;-37
2022/08/21 01:08:30;;;;;;;8.50;4.47;;;14.40;99.90;;;;;;5054564;28;20220;-39
2022/08/21 01:10:58;;;;;;;4.63;3.43;;;14.30;99.90;;;;;;5054116;28;20250;-37
2022/08/21 01:13:24;;;;;;;6.53;4.20;;;14.30;99.90;;;;;;5054114;28;20172;-39
2022/08/21 01:15:52;;;;;;;6.60;4.03;;;14.30;99.90;;;;;;5054141;28;20179;-37
2022/08/21 01:18:20;;;;;;;10.27;4.60;;;14.30;99.90;;;;;;5054029;28;20255;-38
2022/08/21 01:21:11;;;;;;;9.00;3.63;;;14.30;99.90;;;;;;5053920;28;20196;-38
2022/08/21 01:23:39;;;;;;;5.57;4.07;;;14.20;99.90;;;;;;5040428;28;20188;-37
2022/08/21 01:26:06;;;;;;;6.43;3.93;;;14.30;99.90;;;;;;5054423;28;20183;-38
2022/08/21 01:28:38;;;;;;;8.50;4.30;;;14.20;99.90;;;;;;5053810;28;20253;-39
2022/08/21 01:31:07;;;;;;;4.97;3.60;;;14.20;99.90;;;;;;5053303;28;20200;-38
2022/08/21 01:33:33;;;;;;;6.90;3.70;;;14.20;99.90;;;;;;5053940;28;20641;-39
2022/08/21 01:35:58;;;;;;;6.33;4.27;;;14.10;99.90;;;;;;5053700;28;20218;-39
2022/08/21 01:38:25;;;;;;;8.30;4.00;;;14.10;99.90;;;;;;5053884;28;20179;-38
2022/08/21 01:40:50;;;;;;;5.37;3.70;;;14.10;99.90;;;;;;5053489;28;20249;-37
2022/08/21 01:43:16;;;;;;;8.97;3.80;;;14.00;99.90;;;;;;5053653;28;20211;-38
2022/08/21 01:45:41;;;;;;;6.17;4.23;;;14.00;99.90;;;;;;5053564;28;20586;-38
2022/08/21 01:48:07;;;;;;;4.97;3.37;;;14.00;99.90;;;;;;5053673;28;20203;-39
2022/08/21 01:50:33;;;;;;;7.70;3.97;;;14.00;99.90;;;;;;5053406;28;20291;-37
2022/08/21 01:52:59;;;;;;;10.43;3.87;;;14.00;99.90;;;;;;5053480;28;20251;-38
2022/08/21 01:55:24;;;;;;;10.03;4.03;;;14.00;99.90;;;;;;5053443;28;20176;-38
2022/08/21 01:57:50;;;;;;;4.73;3.60;;;13.90;99.90;;;;;;5053762;28;20548;-39
2022/08/21 02:00:18;;;;;;;6.43;3.67;;;13.90;99.90;;;;;;5053714;28;20172;-38
2022/08/21 02:02:44;;;;;;;8.47;3.83;;;13.90;99.90;;;;;;5053515;28;20184;-37
2022/08/21 02:05:12;;;;;;;6.73;3.47;;;13.80;99.90;;;;;;5053383;28;20210;-37
2022/08/21 02:07:42;;;;;;;9.23;3.93;;;13.80;99.90;;;;;;5053577;28;20568;-37
2022/08/21 02:10:12;;;;;;;7.30;3.47;;;13.80;99.90;;;;;;5036304;28;20199;-39
2022/08/21 02:12:38;;;;;;;9.03;3.80;;;13.80;99.90;;;;;;5053575;28;20577;-38
2022/08/21 02:15:05;;;;;;;6.43;3.10;;;13.80;99.90;;;;;;5053238;28;20226;-39
2022/08/21 02:17:42;;;;;;;6.83;3.93;;;13.70;99.90;;;;;;5053447;28;20234;-39
2022/08/21 02:20:09;;;;;;;11.83;3.80;;;13.70;99.90;;;;;;5053563;28;20168;-39
2022/08/21 02:22:35;;;;;;;12.23;3.53;;;13.70;99.90;;;;;;5051841;28;20234;-37
2022/08/21 02:25:01;;;;;;;8.80;3.33;;;13.60;99.90;;;;;;5053465;28;20262;-39
2022/08/21 02:27:27;;;;;;;7.27;3.40;;;13.60;99.90;;;;;;5053267;28;20258;-37
2022/08/21 02:29:54;;;;;;;11.20;3.87;;;13.60;99.90;;;;;;5053185;28;20199;-40
2022/08/21 02:32:21;;;;;;;8.73;3.67;;;13.60;99.90;;;;;;5035261;28;20656;-39
2022/08/21 02:34:46;;;;;;;9.17;3.80;;;13.60;99.90;;;;;;5053470;28;20532;-39
2022/08/21 02:37:12;;;;;;;10.27;3.97;;;13.50;99.90;;;;;;5052933;28;20179;-38
2022/08/21 02:39:38;;;;;;;7.70;4.17;;;13.50;99.90;;;;;;5053420;28;20180;-40
2022/08/21 02:42:04;;;;;;;6.70;3.20;;;13.40;99.90;;;;;;5054296;28;20211;-40
2022/08/21 02:44:29;;;;;;;8.10;3.10;;;13.40;99.90;;;;;;5057249;28;20222;-39
2022/08/21 02:46:55;;;;;;;5.97;3.53;;;13.40;99.90;;;;;;5057212;28;20184;-39
2022/08/21 02:49:21;;;;;;;7.80;3.70;;;13.40;99.90;;;;;;5057109;28;20761;-38
2022/08/21 02:51:46;;;;;;;8.87;3.60;;;13.40;99.90;;;;;;5056905;28;20203;-39
2022/08/21 02:54:12;;;;;;;13.27;3.70;;;13.40;99.90;;;;;;5057114;28;20566;-39
2022/08/21 02:56:37;;;;;;;5.57;3.73;;;13.40;99.90;;;;;;5057799;28;20199;-39
2022/08/21 02:59:03;;;;;;;11.83;3.73;;;13.40;99.90;;;;;;5057380;28;20270;-40
2022/08/21 03:01:29;;;;;;;10.70;3.43;;;13.40;99.90;;;;;;5057056;28;20704;-41
2022/08/21 03:03:54;;;;;;;10.93;3.70;;;13.40;99.90;;;;;;5057444;28;20255;-37
2022/08/21 03:06:22;;;;;;;8.63;3.50;;;13.30;99.90;;;;;;5057168;28;20551;-38
2022/08/21 03:08:48;;;;;;;7.97;3.30;;;13.30;99.90;;;;;;5056820;28;20208;-37
2022/08/21 03:11:15;;;;;;;7.17;3.57;;;13.30;99.90;;;;;;5056465;28;20208;-39
2022/08/21 03:13:41;;;;;;;6.17;3.30;;;13.20;99.90;;;;;;5056928;28;20188;-37
2022/08/21 03:16:07;;;;;;;14.90;4.00;;;13.30;99.90;;;;;;5056739;28;20619;-38
2022/08/21 03:18:33;;;;;;;13.27;3.63;;;13.20;99.90;;;;;;5056724;28;20180;-38
2022/08/21 03:20:58;;;;;;;8.90;3.20;;;13.20;99.90;;;;;;5056364;28;20199;-38
2022/08/21 03:23:25;;;;;;;9.07;3.47;;;13.20;99.90;;;;;;5056764;28;20184;-38
2022/08/21 03:25:51;;;;;;;8.30;3.00;;;13.10;99.90;;;;;;5056311;28;20177;-36
2022/08/21 03:28:20;;;;;;;7.20;2.83;;;13.10;99.90;;;;;;5056409;28;20274;-37
2022/08/21 03:30:48;;;;;;;5.43;2.80;;;13.10;99.90;;;;;;5056697;28;20211;-36
2022/08/21 03:33:14;;;;;;;6.03;3.27;;;13.10;99.90;;;;;;5056510;28;20226;-39
2022/08/21 03:35:42;;;;;;;7.90;3.07;;;13.00;99.90;;;;;;5038233;28;20605;-38
2022/08/21 03:38:08;;;;;;;5.90;2.93;;;13.00;99.90;;;;;;5056057;28;20260;-37
2022/08/21 03:40:33;;;;;;;5.40;2.83;;;13.00;99.90;;;;;;5054777;28;20234;-37
2022/08/21 03:42:59;;;;;;;5.13;2.97;;;13.00;99.90;;;;;;5056182;28;20263;-38
2022/08/21 03:45:25;;;;;;;3.40;2.80;;;13.00;99.90;;;;;;5056371;28;20184;-36
2022/08/21 03:47:59;;;;;;;7.97;3.67;;;13.00;99.90;;;;;;5055837;28;20251;-39
2022/08/21 03:50:27;;;;;;;6.50;3.10;;;13.00;99.90;;;;;;5056259;28;20205;-39
2022/08/21 03:52:52;;;;;;;7.67;2.77;;;13.00;99.90;;;;;;5055373;28;20216;-37
2022/08/21 03:55:18;;;;;;;4.53;2.60;;;13.00;99.90;;;;;;5056167;28;20201;-38
2022/08/21 03:57:44;;;;;;;4.60;2.53;;;12.90;99.90;;;;;;5037922;28;20184;-38
2022/08/21 04:00:11;;;;;;;5.33;2.83;;;12.90;99.90;;;;;;5056125;28;20699;-40
2022/08/21 04:02:38;;;;;;;5.37;3.50;;;12.90;99.90;;;;;;5056111;28;20222;-40
2022/08/21 04:05:04;;;;;;;7.40;3.00;;;13.00;99.90;;;;;;5055852;28;20183;-39
2022/08/21 04:07:30;;;;;;;6.50;2.87;;;13.00;99.90;;;;;;5055400;28;22148;-38
2022/08/21 04:09:55;;;;;;;8.13;3.37;;;13.00;99.90;;;;;;5055408;28;20275;-39
2022/08/21 04:12:21;;;;;;;4.83;2.93;;;13.00;99.90;;;;;;5055674;28;20236;-37
2022/08/21 04:14:47;;;;;;;7.87;3.37;;;13.00;99.90;;;;;;5055614;28;20177;-37
2022/08/21 04:17:12;;;;;;;8.20;3.43;;;13.00;99.90;;;;;;5055572;28;20663;-38
2022/08/21 04:19:38;;;;;;;6.47;2.90;;;13.00;99.90;;;;;;5055622;28;20195;-37
2022/08/21 04:22:04;;;;;;;6.00;3.17;;;12.90;99.90;;;;;;5055193;28;20208;-38
2022/08/21 04:24:29;;;;;;;5.40;3.37;;;12.90;99.90;;;;;;5055393;28;20642;-38
2022/08/21 04:26:55;;;;;;;8.07;3.67;;;12.90;99.90;;;;;;5055223;28;20175;-40
2022/08/21 04:29:20;;;;;;;4.67;3.03;;;12.90;99.90;;;;;;5055152;28;20208;-40
2022/08/21 04:31:46;;;;;;;6.53;3.13;;;12.90;99.90;;;;;;5055225;28;20206;-39
2022/08/21 04:34:12;;;;;;;6.77;3.47;;;12.80;99.90;;;;;;5055398;28;20182;-37
2022/08/21 04:36:37;;;;;;;9.13;3.47;;;12.80;99.90;;;;;;5036921;28;20196;-40
2022/08/21 04:39:03;;;;;;;9.83;3.60;;;12.80;99.90;;;;;;5055172;28;20189;-38
2022/08/21 04:41:29;;;;;;;7.83;2.97;;;12.80;99.90;;;;;;5055431;28;20532;-39
2022/08/21 04:43:55;;;;;;;4.07;3.27;;;12.70;99.90;;;;;;5055115;28;20640;-39
2022/08/21 04:46:22;;;;;;;6.13;3.30;;;12.70;99.90;;;;;;5055549;28;20191;-37
2022/08/21 04:48:48;;;;;;;4.67;3.00;;;12.70;99.90;;;;;;5054711;28;20200;-39
2022/08/21 04:51:23;;;;;;;4.63;3.07;;;12.70;99.90;;;;;;5054922;28;20203;-39
2022/08/21 04:53:53;;;;;;;4.80;2.80;;;12.60;99.90;;;;;;5055017;28;20169;-39
2022/08/21 04:56:23;;;;;;;4.13;3.07;;;12.60;99.90;;;;;;5054689;28;20165;-37
2022/08/21 04:58:52;;;;;;;3.70;3.00;;;12.60;99.90;;;;;;5054627;28;20637;-39
2022/08/21 05:01:21;;;;;;;9.60;3.10;;;12.60;99.90;;;;;;5054304;28;20586;-39
2022/08/21 05:03:50;;;;;;;6.27;3.10;;;12.60;99.90;;;;;;5054400;28;20192;-40
2022/08/21 05:06:16;;;;;;;6.10;3.60;;;12.60;99.90;;;;;;5053266;28;20246;-38
2022/08/21 05:08:45;;;;;;;8.20;3.00;;;12.60;99.90;;;;;;5054374;28;20204;-40
2022/08/21 05:11:11;;;;;;;6.33;3.40;;;12.60;99.90;;;;;;5054567;28;20204;-39
2022/08/21 05:13:37;;;;;;;4.47;3.20;;;12.60;99.90;;;;;;5054468;28;20712;-39
2022/08/21 05:16:03;;;;;;;5.53;3.60;;;12.60;99.90;;;;;;5054416;28;20652;-39
2022/08/21 05:18:28;;;;;;;3.57;3.13;;;12.60;99.90;;;;;;5054536;28;20279;-39
2022/08/21 05:20:54;;;;;;;4.27;3.20;;;12.60;99.90;;;;;;5054236;28;20201;-38
2022/08/21 05:23:20;;;;;;;7.83;3.93;;;12.60;99.90;;;;;;5036770;28;20557;-39
2022/08/21 05:25:45;;;;;;;5.53;3.83;;;12.60;99.90;;;;;;5054797;28;20815;-39
2022/08/21 05:28:12;;;;;;;7.50;4.10;;;12.60;99.90;;;;;;5054436;28;20687;-36
2022/08/21 05:30:38;;;;;;;7.17;3.87;;;12.70;99.90;;;;;;5054074;28;20212;-37
2022/08/21 05:33:05;;;;;;;8.83;3.40;;;12.70;99.90;;;;;;5054528;28;20188;-36
2022/08/21 05:35:32;;;;;;;6.60;3.73;;;12.80;99.90;;;;;;5054107;28;20549;-40
2022/08/21 05:37:59;;;;;;;7.63;3.90;;;12.70;99.90;;;;;;5053663;28;20198;-38
2022/08/21 05:40:26;;;;;;;11.00;3.50;;;12.80;99.90;;;;;;5053970;28;20564;-40
2022/08/21 05:42:53;;;;;;;5.43;3.70;;;12.90;99.90;;;;;;5054030;28;20191;-39
2022/08/21 05:45:19;;;;;;;5.60;3.80;;;12.90;99.90;;;;;;5053728;28;20271;-38
2022/08/21 05:47:45;;;;;;;7.87;3.80;;;13.00;99.90;;;;;;5054119;28;20334;-37
2022/08/21 05:50:10;;;;;;;10.07;4.20;;;13.00;99.90;;;;;;5053421;28;20659;-36
2022/08/21 05:52:36;;;;;;;5.90;3.97;;;13.10;99.90;;;;;;5054107;28;20184;-37
2022/08/21 05:55:02;;;;;;;3.77;3.30;;;13.20;99.90;;;;;;5053730;28;20639;-39
2022/08/21 05:57:28;;;;;;;11.03;3.97;;;13.20;99.90;;;;;;5053880;28;20230;-37
2022/08/21 05:59:54;;;;;;;7.87;3.47;;;13.30;99.90;;;;;;5053367;28;20200;-37
2022/08/21 06:02:20;;;;;;;8.20;4.10;;;13.40;99.90;;;;;;5054508;28;20208;-37
2022/08/21 06:04:47;;;;;;;7.40;4.00;;;13.50;99.90;;;;;;5053593;28;20624;-38
2022/08/21 06:07:12;;;;;;;8.27;4.40;;;13.60;99.90;;;;;;5053263;28;20226;-37
2022/08/21 06:09:38;;;;;;;5.60;3.43;;;13.60;99.90;;;;;;5051977;28;20235;-38
2022/08/21 06:12:09;;;;;;;6.10;3.13;;;13.80;99.90;;;;;;5053155;28;20655;-37
2022/08/21 06:14:35;;;;;;;5.33;3.50;;;13.90;99.90;;;;;;5053503;28;20171;-36
2022/08/21 06:17:05;;;;;;;6.40;3.47;;;14.00;99.90;;;;;;5052975;28;20176;-39
2022/08/21 06:19:31;;;;;;;7.30;3.57;;;14.10;99.90;;;;;;5053410;28;20176;-37
2022/08/21 06:21:57;;;;;;;7.27;3.87;;;14.20;99.90;;;;;;5053109;28;20216;-37
2022/08/21 06:24:22;;;;;;;5.70;3.60;;;14.40;99.90;;;;;;5035268;28;20213;-38
2022/08/21 06:26:48;;;;;;;7.60;3.50;;;14.50;99.90;;;;;;5053129;28;20213;-41
2022/08/21 06:29:16;;;;;;;7.97;3.50;;;14.60;99.90;;;;;;5053156;28;20257;-38
2022/08/21 06:31:43;;;;;;;5.20;3.37;;;14.80;99.90;;;;;;5053803;28;20554;-38
2022/08/21 06:34:09;;;;;;;8.10;3.73;;;14.90;99.90;;;;;;5053120;28;20239;-37
2022/08/21 06:36:34;;;;;;;5.77;2.83;;;15.10;99.90;;;;;;5053227;28;20567;-37
2022/08/21 06:39:00;;;;;;;5.97;2.87;;;15.30;99.90;;;;;;5053423;28;20226;-37
2022/08/21 06:41:26;;;;;;;8.97;3.07;;;15.50;99.90;;;;;;5053377;28;20203;-39
2022/08/21 06:43:52;;;;;;;5.13;2.90;;;15.70;99.90;;;;;;5053950;28;20663;-37
2022/08/21 06:46:17;;;;;;;5.23;3.00;;;15.90;99.90;;;;;;5054026;28;20638;-39
2022/08/21 06:48:43;;;;;;;6.10;2.60;;;16.00;99.90;;;;;;5053590;28;20613;-39
2022/08/21 06:51:09;;;;;;;7.90;3.13;;;16.20;99.90;;;;;;5053726;28;20246;-38
2022/08/21 06:53:35;;;;;;;7.03;3.10;;;16.40;99.90;;;;;;5053424;28;20176;-39
2022/08/21 06:56:00;;;;;;;8.17;2.77;;;16.60;99.90;;;;;;5053733;28;20238;-38
2022/08/21 06:58:26;;;;;;;5.07;2.97;;;16.80;99.90;;;;;;5053361;28;20189;-38
2022/08/21 07:00:52;;;;;;;10.23;3.10;;;17.00;99.90;;;;;;5053415;28;20194;-38
2022/08/21 07:03:24;;;;;;;7.70;3.10;;;17.20;99.90;;;;;;5054354;28;20569;-38
2022/08/21 07:05:50;;;;;;;10.87;3.27;;;17.30;99.90;;;;;;5053318;28;20247;-40
2022/08/21 07:08:16;;;;;;;8.60;2.93;;;17.50;99.90;;;;;;5053685;28;20216;-37
2022/08/21 07:10:42;;;;;;;6.80;2.27;;;17.80;99.90;;;;;;5053658;28;20196;-38
2022/08/21 07:13:08;;;;;;;6.33;2.60;;;18.00;99.90;;;;;;5035344;28;20307;-40
2022/08/21 07:15:34;;;;;;;6.67;2.70;;;18.10;99.90;;;;;;5053790;28;20481;-37
2022/08/21 07:18:00;;;;;;;9.70;2.53;;;18.30;99.90;;;;;;5053544;28;20184;-37
2022/08/21 07:20:27;;;;;;;6.40;2.20;;;18.30;99.90;;;;;;5053347;28;20526;-39
2022/08/21 07:22:54;;;;;;;8.57;2.63;;;18.30;99.90;;;;;;5053595;28;20250;-38
2022/08/21 07:25:19;;;;;;;4.20;1.83;;;18.40;99.90;;;;;;5054053;28;20623;-38
2022/08/21 07:27:45;;;;;;;4.93;2.03;;;18.50;99.90;;;;;;5054185;28;20231;-40
2022/08/21 07:30:11;;;;;;;7.20;2.20;;;18.60;99.90;;;;;;5057096;28;20641;-39
2022/08/21 07:32:36;;;;;;;7.17;1.73;;;18.70;99.90;;;;;;5056783;28;20547;-39
2022/08/21 07:35:02;;;;;;;7.13;2.00;;;18.80;99.90;;;;;;5056625;28;20173;-39
2022/08/21 07:37:28;;;;;;;10.53;2.10;;;18.90;99.90;;;;;;5056675;28;20172;-39
2022/08/21 07:39:53;;;;;;;4.83;1.67;;;19.00;99.90;;;;;;5056684;28;20191;-41
2022/08/21 07:42:19;;;;;;;3.70;1.37;;;19.20;99.90;;;;;;5056801;28;20220;-39
2022/08/21 07:44:44;;;;;;;4.17;1.40;;;19.40;99.90;;;;;;5056904;28;20215;-41
2022/08/21 07:47:10;;;;;;;4.17;1.10;;;19.50;99.90;;;;;;5055415;28;20230;-41
2022/08/21 07:49:36;;;;;;;4.77;1.67;;;19.70;99.90;;;;;;5056948;28;20214;-39
2022/08/21 07:52:02;;;;;;;4.83;1.47;;;19.80;99.90;;;;;;5056973;28;20287;-42
2022/08/21 07:54:27;;;;;;;4.63;1.53;;;19.80;99.90;;;;;;5057071;28;20204;-39
2022/08/21 07:56:53;;;;;;;2.20;1.03;;;20.00;99.90;;;;;;5057039;28;20172;-39
2022/08/21 07:59:18;;;;;;;7.63;1.90;;;20.00;99.90;;;;;;5056558;28;20222;-40
2022/08/21 08:01:44;;;;;;;5.33;1.53;;;20.10;99.90;;;;;;5056392;28;20196;-40
2022/08/21 08:04:09;;;;;;;4.03;1.27;;;20.10;99.90;;;;;;5056501;28;20180;-39
2022/08/21 08:06:35;;;;;;;2.00;1.10;;;20.30;99.90;;;;;;5056403;28;20731;-40
2022/08/21 08:09:03;;;;;;;5.60;1.50;;;20.40;99.90;;;;;;5056050;28;20208;-39
2022/08/21 08:11:29;;;;;;;4.77;1.20;;;20.50;99.90;;;;;;5055990;28;20228;-37
2022/08/21 08:13:57;;;;;;;3.63;1.10;;;20.60;99.90;;;;;;5055570;28;20176;-38
2022/08/21 08:16:23;;;;;;;3.73;1.40;;;20.80;99.90;;;;;;5056377;28;20226;-38
2022/08/21 08:18:48;;;;;;;4.53;1.40;;;20.80;99.90;;;;;;5056103;28;20180;-40
2022/08/21 08:21:14;;;;;;;5.83;1.10;;;20.80;99.90;;;;;;5054639;28;20676;-41
2022/08/21 08:23:40;;;;;;;2.70;1.00;;;20.90;99.90;;;;;;5056658;28;20260;-38
2022/08/21 08:26:06;;;;;;;3.30;1.10;;;21.00;99.90;;;;;;5037725;28;20184;-40
2022/08/21 08:28:33;;;;;;;2.53;1.10;;;21.20;99.90;;;;;;5057753;28;20203;-38
2022/08/21 08:30:59;;;;;;;2.40;0.70;;;21.30;99.90;;;;;;5055916;28;20275;-37
2022/08/21 08:33:25;;;;;;;3.73;1.03;;;21.30;99.90;;;;;;5055694;28;20682;-40
2022/08/21 08:35:51;;;;;;;5.30;1.10;;;21.40;99.90;;;;;;5055661;28;20267;-39
2022/08/21 08:38:19;;;;;;;3.17;1.00;;;21.50;99.90;;;;;;5055785;28;20177;-39
2022/08/21 08:41:02;;;;;;;2.63;1.00;;;21.50;99.90;;;;;;5055398;28;20338;-38
2022/08/21 08:43:31;;;;;;;4.73;0.93;;;21.60;99.90;;;;;;5055710;28;20503;-40
2022/08/21 08:46:01;;;;;;;4.43;1.43;;;21.70;99.90;;;;;;5055435;28;20183;-38
2022/08/21 08:48:55;;;;;;;3.80;1.20;;;21.80;99.90;;;;;;5055419;28;20232;-38
2022/08/21 08:51:47;;;;;;;4.17;1.17;;;21.80;99.90;;;;;;5055252;28;20668;-39
2022/08/21 08:54:18;;;;;;;2.50;1.10;;;21.80;99.90;;;;;;5041818;28;20579;-39
2022/08/21 08:56:45;;;;;;;3.97;1.20;;;21.90;99.90;;;;;;5055615;28;20157;-39
2022/08/21 08:59:22;;;;;;;4.87;1.17;;;22.00;99.90;;;;;;5054841;28;20188;-39
2022/08/21 09:01:48;;;;;;;6.40;1.37;;;22.00;99.90;;;;;;5055285;28;20273;-38
2022/08/21 09:04:20;;;;;;;2.97;0.90;;;22.00;99.90;;;;;;5055602;28;20275;-39
2022/08/21 09:06:54;;;;;;;4.47;1.20;;;22.10;99.90;;;;;;5054815;28;20603;-39
2022/08/21 09:09:34;;;;;;;3.43;1.00;;;22.20;99.90;;;;;;5055251;28;20188;-41
2022/08/21 09:12:35;;;;;;;6.77;1.30;;;22.30;99.90;;;;;;5055291;28;20702;-40
2022/08/21 09:15:35;;;;;;;3.07;1.13;;;22.40;99.90;;;;;;5054844;28;20164;-38
2022/08/21 09:18:29;;;;;;;4.43;1.10;;;22.50;99.90;;;;;;5037491;28;20661;-39
2022/08/21 09:20:55;;;;;;;4.87;1.00;;;22.60;99.90;;;;;;5054961;28;20568;-38
2022/08/21 09:23:55;;;;;;;5.83;2.03;;;22.70;99.90;;;;;;5054591;28;20203;-39
2022/08/21 09:26:26;;;;;;;4.43;1.40;;;22.60;99.90;;;;;;5054741;28;20525;-40
2022/08/21 09:28:57;;;;;;;3.90;1.00;;;22.60;99.90;;;;;;5054539;28;20200;-40
2022/08/21 09:31:39;;;;;;;3.90;1.30;;;22.50;99.90;;;;;;5054340;28;20218;-39
2022/08/21 09:34:11;;;;;;;4.43;1.20;;;22.60;99.90;;;;;;5054281;28;20218;-40
2022/08/21 09:36:45;;;;;;;8.87;1.30;;;22.70;99.90;;;;;;5054148;28;20172;-39
2022/08/21 09:39:21;;;;;;;4.47;1.10;;;22.70;99.90;;;;;;5054524;28;20176;-40
2022/08/21 09:42:00;;;;;;;3.43;1.00;;;22.80;99.90;;;;;;5054395;28;20693;-38
2022/08/21 09:44:32;;;;;;;7.83;1.50;;;22.80;99.90;;;;;;5054606;28;20251;-40
2022/08/21 09:46:57;;;;;;;4.87;1.10;;;22.90;99.90;;;;;;5054361;28;20176;-42
2022/08/21 09:49:31;;;;;;;3.50;0.97;;;23.10;99.90;;;;;;5054544;28;20200;-42
2022/08/21 09:51:58;;;;;;;2.70;1.10;;;23.20;99.90;;;;;;5053528;28;20218;-40
2022/08/21 09:54:34;;;;;;;4.80;1.10;;;23.30;99.90;;;;;;5053852;28;20655;-40
2022/08/21 10:00:07;;;;;;;4.97;1.50;;;23.60;99.90;;;;;;5054248;28;20616;-40
2022/08/21 10:02:35;;;;;;;3.23;0.93;;;23.60;99.90;;;;;;5055139;28;20203;-42
2022/08/21 10:05:15;;;;;;;3.20;1.20;;;23.70;99.90;;;;;;5054607;28;20184;-41
2022/08/21 10:07:40;;;;;;;4.73;1.30;;;23.80;99.90;;;;;;5053738;28;20156;-40
2022/08/21 10:10:16;;;;;;;4.87;1.23;;;24.00;99.90;;;;;;5053705;28;20176;-40
2022/08/21 10:12:42;;;;;;;5.07;1.80;;;24.10;99.90;;;;;;5054166;28;20159;-39
2022/08/21 10:15:34;;;;;;;6.73;1.43;;;24.20;99.90;;;;;;5053609;28;20172;-41
2022/08/21 10:18:08;;;;;;;4.53;1.43;;;24.40;99.90;;;;;;5054188;28;20168;-40
2022/08/21 10:20:47;;;;;;;3.63;1.53;;;24.40;99.90;;;;;;5053841;28;20202;-40
2022/08/21 10:23:48;;;;;;;5.10;1.83;;;24.40;99.90;;;;;;5054102;28;20210;-38
2022/08/21 10:26:47;;;;;;;8.43;1.83;;;24.50;99.90;;;;;;5054069;28;20164;-41
2022/08/21 10:29:36;;;;;;;4.53;1.40;;;24.50;99.90;;;;;;5053432;28;20200;-40
2022/08/21 10:32:21;;;;;;;4.53;1.40;;;24.60;99.90;;;;;;5053503;28;20193;-42
2022/08/21 10:35:21;;;;;;;6.20;1.70;;;24.70;99.90;;;;;;5053983;28;20167;-40
2022/08/21 10:38:16;;;;;;;6.63;1.87;;;24.70;99.90;;;;;;5053716;28;20190;-42
2022/08/21 10:41:11;;;;;;;3.40;1.50;;;24.70;99.90;;;;;;5054047;28;20723;-40
2022/08/21 10:44:14;;;;;;;3.70;1.20;;;24.80;99.90;;;;;;5054499;28;20180;-40
2022/08/21 10:46:55;;;;;;;5.87;1.43;;;24.80;99.90;;;;;;5027164;28;20274;-41
2022/08/21 10:49:41;;;;;;;5.30;1.70;;;24.80;99.90;;;;;;5054163;28;20211;-40
2022/08/21 10:52:34;;;;;;;5.03;1.63;;;24.90;99.90;;;;;;5004687;28;20203;-40
2022/08/21 10:55:17;;;;;;;5.33;1.40;;;25.00;99.90;;;;;;5035680;28;20645;-41
2022/08/21 10:58:00;;;;;;;10.60;1.63;;;25.00;99.90;;;;;;5054131;28;20177;-39
2022/08/21 11:00:53;;;;;;;4.50;1.40;;;24.90;99.90;;;;;;5035831;28;20218;-41
2022/08/21 11:03:32;;;;;;;3.03;1.33;;;25.00;99.90;;;;;;5055115;28;20169;-39
2022/08/21 11:06:21;;;;;;;5.87;1.60;;;25.10;99.90;;;;;;5057335;28;20199;-41
2022/08/21 11:08:54;;;;;;;5.47;1.30;;;25.10;99.90;;;;;;5057164;28;20208;-41
2022/08/21 11:11:31;;;;;;;6.93;1.50;;;25.20;99.90;;;;;;5056854;28;20679;-41
2022/08/21 11:14:21;;;;;;;2.60;1.10;;;25.30;99.90;;;;;;5057137;28;20165;-42
2022/08/21 11:17:06;;;;;;;3.07;1.27;;;25.40;99.90;;;;;;5057161;28;20251;-40
2022/08/21 11:19:58;;;;;;;3.73;1.10;;;25.40;99.90;;;;;;5057186;28;20711;-41
2022/08/21 11:22:31;;;;;;;5.13;1.37;;;25.50;99.90;;;;;;5056546;28;20307;-40
2022/08/21 11:25:22;;;;;;;3.93;1.50;;;25.50;99.90;;;;;;5057047;28;20552;-41
2022/08/21 11:38:25;;;;;;;3.03;1.20;;;25.60;99.90;;;;;;3127867;22;20231;-40
2022/08/21 11:41:01;;;;;;;5.70;1.50;;;25.70;99.90;;;;;;5056292;28;20730;-42
2022/08/21 11:43:39;;;;;;;3.63;1.17;;;25.90;99.90;;;;;;5056227;28;20206;-39
2022/08/21 11:46:38;;;;;;;3.53;1.27;;;26.00;99.90;;;;;;5056195;28;20248;-39
2022/08/21 11:49:25;;;;;;;4.73;1.10;;;26.00;99.90;;;;;;5056127;28;20644;-40
2022/08/21 11:52:09;;;;;;;2.90;1.37;;;26.10;99.90;;;;;;5055939;28;20196;-41
2022/08/21 11:54:44;;;;;;;1.85;1.00;;;26.30;99.90;;;;;;5037908;28;20165;-39
2022/08/21 11:57:40;;;;;;;2.93;0.93;;;26.50;99.90;;;;;;5055822;28;20168;-41
2022/08/21 12:00:08;;;;;;;3.17;1.37;;;26.60;99.90;;;;;;5055708;28;20160;-43
2022/08/21 12:02:37;;;;;;;5.95;1.10;;;26.50;99.90;;;;;;5055848;28;20204;-42
2022/08/21 12:05:08;;;;;;;4.35;1.10;;;26.50;99.90;;;;;;5055824;28;20196;-40
2022/08/21 12:07:40;;;;;;;3.45;1.00;;;26.30;99.90;;;;;;5055737;28;20165;-42
2022/08/21 12:10:13;;;;;;;4.65;1.17;;;26.30;99.90;;;;;;5037611;28;20183;-42
2022/08/21 12:12:41;;;;;;;3.40;1.20;;;26.20;99.90;;;;;;5056053;28;20543;-41
2022/08/21 12:15:14;;;;;;;3.05;1.38;;;26.30;99.90;;;;;;5055257;28;20168;-40
2022/08/21 12:17:50;;;;;;;4.00;1.33;;;26.40;99.90;;;;;;5055392;28;20187;-41
2022/08/21 12:20:35;;;;;;;1.75;0.88;;;26.40;99.90;;;;;;5055705;28;20252;-40
2022/08/21 12:23:10;;;;;;;2.72;1.10;;;26.30;99.90;;;;;;5055343;28;20628;-39
2022/08/21 12:25:59;;;;;;;3.95;1.08;;;26.30;99.90;;;;;;5055495;28;20205;-40
2022/08/21 12:28:26;;;;;;;2.78;1.33;;;26.40;99.90;;;;;;5055416;28;20202;-42
2022/08/21 12:30:52;;;;;;;4.03;1.13;;;26.50;99.90;;;;;;5055036;28;20200;-42
2022/08/21 12:33:46;;;;;;;4.05;1.40;;;26.60;99.90;;;;;;5056186;28;20309;-41
2022/08/21 12:36:20;;;;;;;3.28;1.25;;;26.80;99.90;;;;;;5051464;28;20563;-42
2022/08/21 12:39:10;;;;;;;2.47;1.20;;;27.00;99.90;;;;;;5055514;28;20195;-41
2022/08/21 12:42:10;;;;;;;2.78;0.95;;;27.00;99.90;;;;;;5055588;28;20196;-41
2022/08/21 12:44:45;;;;;;;2.83;1.23;;;27.00;99.90;;;;;;5055378;28;20198;-40
2022/08/21 12:47:34;;;;;;;1.77;0.90;;;27.10;99.90;;;;;;5055265;28;20164;-40
2022/08/21 12:50:02;;;;;;;2.45;0.95;;;27.20;99.90;;;;;;5055665;28;20165;-42
2022/08/21 12:52:40;;;;;;;3.25;1.10;;;27.20;99.90;;;;;;5054984;28;20246;-40
2022/08/21 12:55:11;;;;;;;3.60;1.13;;;27.10;99.90;;;;;;5055162;28;20164;-41
2022/08/21 12:57:40;;;;;;;2.65;0.98;;;27.20;99.90;;;;;;5055155;28;20202;-40
2022/08/21 13:00:12;;;;;;;3.55;1.08;;;27.20;99.90;;;;;;5054675;28;20168;-40
2022/08/21 13:02:45;;;;;;;4.50;1.42;;;27.30;99.90;;;;;;5054827;28;20191;-42
2022/08/21 13:05:15;;;;;;;1.60;1.05;;;27.30;99.90;;;;;;5054543;28;20168;-41
2022/08/21 13:07:46;;;;;;;3.38;1.08;;;27.40;99.90;;;;;;5054393;28;20210;-42
2022/08/21 13:10:23;;;;;;;3.55;1.50;;;27.50;99.90;;;;;;5054520;28;20620;-42
2022/08/21 13:12:49;;;;;;;2.25;0.93;;;27.70;99.90;;;;;;5054542;28;20520;-41
2022/08/21 13:15:22;;;;;;;3.20;1.40;;;27.60;99.90;;;;;;5054300;28;20226;-41
2022/08/21 13:17:50;;;;;;;3.17;1.30;;;27.60;99.90;;;;;;5054503;28;20223;-40